createdAt,value
2022-08-10T00:02:27.765Z,17.80
2022-08-10T00:04:57.340Z,17.80
2022-08-10T00:07:30.856Z,17.80
2022-08-10T00:10:04.909Z,17.70
2022-08-10T00:12:54.356Z,17.70
2022-08-10T00:15:44.634Z,17.70
2022-08-10T00:18:36.473Z,17.70
2022-08-10T00:21:06.398Z,17.60
2022-08-10T00:23:37.417Z,17.60
2022-08-10T00:26:08.536Z,17.60
2022-08-10T00:28:39.671Z,17.50
2022-08-10T00:31:11.366Z,17.50
2022-08-10T00:33:41.601Z,17.40
2022-08-10T00:36:09.661Z,17.40
2022-08-10T00:38:41.262Z,17.30
2022-08-10T00:41:12.558Z,17.20
2022-08-10T00:43:42.394Z,17.20
2022-08-10T00:46:15.719Z,17.30
2022-08-10T00:48:46.744Z,17.20
2022-08-10T00:51:40.447Z,17.20
2022-08-10T00:54:24.589Z,17.10
2022-08-10T00:57:16.914Z,17.10
2022-08-10T00:59:58.727Z,17.00
2022-08-10T01:02:34.445Z,17.10
2022-08-10T01:05:05.552Z,17.00
2022-08-10T01:07:42.816Z,17.00
2022-08-10T01:10:23.495Z,16.90
2022-08-10T01:13:02.596Z,16.80
2022-08-10T01:15:56.223Z,16.90
2022-08-10T01:18:33.758Z,16.90
2022-08-10T01:21:24.048Z,16.90
2022-08-10T01:24:03.382Z,16.90
2022-08-10T01:26:41.153Z,16.90
2022-08-10T01:29:27.956Z,16.90
2022-08-10T01:32:00.694Z,16.80
2022-08-10T01:34:50.699Z,16.80
2022-08-10T01:37:23.713Z,16.80
2022-08-10T01:39:55.665Z,16.80
2022-08-10T01:42:28.876Z,16.80
2022-08-10T01:44:57.886Z,16.70
2022-08-10T01:47:49.835Z,16.70
2022-08-10T01:50:59.600Z,16.60
2022-08-10T01:53:40.842Z,16.60
2022-08-10T01:56:17.447Z,16.60
2022-08-10T01:58:57.378Z,16.60
2022-08-10T02:01:36.397Z,16.50
2022-08-10T02:04:08.635Z,16.40
2022-08-10T02:06:42.398Z,16.40
2022-08-10T02:09:13.441Z,16.40
2022-08-10T02:12:05.133Z,16.40
2022-08-10T02:14:42.123Z,16.30
2022-08-10T02:17:58.153Z,16.30
2022-08-10T02:20:09.975Z,16.30
2022-08-10T02:22:44.854Z,16.30
2022-08-10T02:25:42.394Z,16.30
2022-08-10T02:28:08.956Z,16.30
2022-08-10T02:30:43.699Z,16.20
2022-08-10T02:33:23.765Z,16.20
2022-08-10T02:35:54.340Z,16.10
2022-08-10T02:38:58.899Z,16.10
2022-08-10T02:45:12.321Z,16.10
2022-08-10T02:45:18.409Z,16.00
2022-08-10T02:47:29.021Z,16.00
2022-08-10T02:50:07.227Z,16.00
2022-08-10T02:52:39.016Z,15.90
2022-08-10T02:55:18.037Z,15.90
2022-08-10T02:58:13.318Z,15.90
2022-08-10T03:00:54.726Z,15.90
2022-08-10T03:03:31.680Z,15.90
2022-08-10T03:06:05.825Z,15.80
2022-08-10T03:08:36.576Z,15.80
2022-08-10T03:11:07.890Z,15.70
2022-08-10T03:13:38.682Z,15.70
2022-08-10T03:16:11.403Z,15.70
2022-08-10T03:18:43.104Z,15.70
2022-08-10T03:21:13.961Z,15.70
2022-08-10T03:23:48.585Z,15.70
2022-08-10T03:26:22.677Z,15.70
2022-08-10T03:28:53.698Z,15.70
2022-08-10T03:31:25.342Z,15.60
2022-08-10T03:33:56.736Z,15.60
2022-08-10T03:36:42.829Z,15.60
2022-08-10T03:39:17.794Z,15.60
2022-08-10T03:41:53.501Z,15.60
2022-08-10T03:44:25.523Z,15.60
2022-08-10T03:46:56.182Z,15.60
2022-08-10T03:49:25.469Z,15.60
2022-08-10T03:51:58.327Z,15.60
2022-08-10T03:54:28.127Z,15.60
2022-08-10T03:56:59.482Z,15.70
2022-08-10T03:59:31.781Z,15.70
2022-08-10T04:02:43.206Z,15.80
2022-08-10T04:05:01.889Z,15.70
2022-08-10T04:07:36.637Z,15.80
2022-08-10T04:10:07.931Z,15.80
2022-08-10T04:12:49.039Z,15.90
2022-08-10T04:15:21.950Z,15.90
2022-08-10T04:18:01.205Z,15.90
2022-08-10T04:20:40.969Z,15.80
2022-08-10T04:23:12.782Z,15.90
2022-08-10T04:25:44.588Z,16.00
2022-08-10T04:28:13.379Z,16.00
2022-08-10T04:30:49.558Z,16.10
2022-08-10T04:33:24.591Z,16.20
2022-08-10T04:35:58.105Z,16.40
2022-08-10T04:38:31.910Z,16.40
2022-08-10T04:41:03.738Z,16.60
2022-08-10T04:43:34.040Z,16.60
2022-08-10T04:46:14.013Z,16.70
2022-08-10T04:49:02.829Z,16.80
2022-08-10T04:51:36.212Z,16.80
2022-08-10T04:54:08.163Z,16.90
2022-08-10T04:56:40.233Z,17.00
2022-08-10T04:59:14.072Z,17.10
2022-08-10T05:02:28.469Z,17.30
2022-08-10T05:04:46.149Z,17.40
2022-08-10T05:07:21.868Z,17.40
2022-08-10T05:10:04.752Z,17.40
2022-08-10T05:12:37.490Z,17.40
2022-08-10T05:15:12.869Z,17.50
2022-08-10T05:18:08.154Z,17.50
2022-08-10T05:20:39.383Z,17.50
2022-08-10T05:23:12.770Z,17.50
2022-08-10T05:25:46.401Z,17.60
2022-08-10T05:28:19.795Z,17.60
2022-08-10T05:30:54.839Z,17.80
2022-08-10T05:33:25.963Z,18.00
2022-08-10T05:36:00.679Z,18.30
2022-08-10T05:38:31.551Z,18.60
2022-08-10T05:41:03.840Z,18.90
2022-08-10T05:43:40.230Z,19.30
2022-08-10T05:46:18.285Z,19.60
2022-08-10T05:48:59.513Z,19.80
2022-08-10T05:51:29.379Z,19.90
2022-08-10T05:54:03.960Z,20.00
2022-08-10T05:56:53.978Z,20.20
2022-08-10T06:00:11.055Z,20.30
2022-08-10T06:02:37.934Z,20.30
2022-08-10T06:05:10.238Z,20.40
2022-08-10T06:07:51.901Z,20.50
2022-08-10T06:10:32.493Z,20.50
2022-08-10T06:13:26.882Z,20.70
2022-08-10T06:16:09.594Z,20.80
2022-08-10T06:18:38.894Z,21.00
2022-08-10T06:21:07.303Z,21.00
2022-08-10T06:23:44.006Z,21.10
2022-08-10T06:26:19.717Z,21.10
2022-08-10T06:29:03.662Z,21.20
2022-08-10T06:31:48.265Z,21.40
2022-08-10T06:34:27.084Z,21.70
2022-08-10T06:37:01.075Z,22.10
2022-08-10T06:39:34.200Z,22.20
2022-08-10T06:42:16.444Z,22.60
2022-08-10T06:44:58.065Z,22.90
2022-08-10T06:47:39.539Z,23.10
2022-08-10T06:50:35.003Z,23.20
2022-08-10T06:53:22.741Z,23.20
2022-08-10T06:55:58.105Z,23.50
2022-08-10T06:58:31.205Z,23.70
2022-08-10T07:01:03.243Z,23.90
2022-08-10T07:03:41.517Z,24.20
2022-08-10T07:06:14.380Z,24.50
2022-08-10T07:08:43.174Z,24.80
2022-08-10T07:11:14.078Z,25.20
2022-08-10T07:14:15.633Z,25.70
2022-08-10T07:16:43.003Z,26.10
2022-08-10T07:19:16.160Z,26.80
2022-08-10T07:21:46.585Z,27.40
2022-08-10T07:24:17.247Z,28.00
2022-08-10T07:26:50.402Z,28.00
2022-08-10T07:29:26.328Z,27.90
2022-08-10T07:32:15.455Z,27.70
2022-08-10T07:34:44.854Z,27.80
2022-08-10T07:37:19.238Z,27.60
2022-08-10T07:40:03.595Z,27.70
2022-08-10T07:42:33.877Z,28.20
2022-08-10T07:45:05.668Z,27.80
2022-08-10T07:47:53.803Z,27.30
2022-08-10T07:50:35.375Z,26.80
2022-08-10T07:53:14.417Z,26.80
2022-08-10T07:56:05.687Z,26.70
2022-08-10T07:58:51.919Z,26.70
2022-08-10T08:01:24.610Z,26.70
2022-08-10T08:04:05.304Z,26.50
2022-08-10T08:06:46.109Z,26.50
2022-08-10T08:09:14.180Z,26.50
2022-08-10T08:11:46.627Z,26.50
2022-08-10T08:14:15.849Z,26.50
2022-08-10T08:16:53.007Z,26.50
2022-08-10T08:19:35.977Z,26.70
2022-08-10T08:24:06.837Z,27.00
2022-08-10T08:25:03.954Z,27.30
2022-08-10T08:27:33.474Z,27.50
2022-08-10T08:30:05.857Z,27.70
2022-08-10T08:32:47.546Z,28.00
2022-08-10T08:35:37.288Z,28.30
2022-08-10T08:38:31.709Z,28.30
2022-08-10T08:41:20.083Z,28.10
2022-08-10T08:44:09.849Z,28.10
2022-08-10T08:46:59.111Z,28.20
2022-08-10T08:50:08.951Z,28.10
2022-08-10T08:52:33.579Z,28.10
2022-08-10T08:56:04.266Z,28.20
2022-08-10T08:58:32.467Z,27.90
2022-08-10T09:01:00.422Z,27.40
2022-08-10T09:03:39.918Z,27.10
2022-08-10T09:06:30.243Z,26.80
2022-08-10T09:09:22.005Z,26.60
2022-08-10T09:11:52.783Z,26.50
2022-08-10T09:14:28.892Z,26.30
2022-08-10T09:17:14.213Z,26.40
2022-08-10T09:20:04.628Z,26.30
2022-08-10T09:22:38.657Z,26.30
2022-08-10T09:25:21.615Z,26.30
2022-08-10T09:27:56.495Z,26.20
2022-08-10T09:31:03.675Z,26.10
2022-08-10T09:36:21.931Z,26.00
2022-08-10T09:36:59.892Z,25.90
2022-08-10T09:40:12.246Z,25.70
2022-08-10T09:42:36.923Z,25.70
2022-08-10T09:45:24.263Z,25.70
2022-08-10T09:48:01.829Z,25.80
2022-08-10T09:51:34.517Z,25.90
2022-08-10T09:54:01.056Z,26.10
2022-08-10T09:56:33.048Z,26.60
2022-08-10T09:59:26.671Z,26.90
2022-08-10T10:02:13.975Z,27.30
2022-08-10T10:04:53.321Z,27.70
2022-08-10T10:07:26.453Z,27.50
2022-08-10T10:09:57.556Z,27.40
2022-08-10T10:12:44.266Z,27.40
2022-08-10T10:15:25.359Z,27.30
2022-08-10T10:18:05.404Z,27.20
2022-08-10T10:20:52.560Z,27.10
2022-08-10T10:23:26.720Z,27.00
2022-08-10T10:26:06.586Z,26.80
2022-08-10T10:29:37.396Z,26.70
2022-08-10T10:32:07.954Z,26.60
2022-08-10T10:34:54.327Z,26.50
2022-08-10T10:38:01.356Z,26.40
2022-08-10T10:40:32.011Z,26.40
2022-08-10T10:43:11.246Z,26.40
2022-08-10T10:45:50.729Z,26.30
2022-08-10T10:48:24.143Z,26.20
2022-08-10T10:51:15.680Z,26.10
2022-08-10T10:54:03.248Z,26.10
2022-08-10T10:56:51.506Z,26.20
2022-08-10T10:59:55.284Z,26.10
2022-08-10T11:02:42.496Z,26.20
2022-08-10T11:05:31.802Z,26.20
2022-08-10T11:08:03.807Z,26.20
2022-08-10T11:10:47.437Z,26.10
2022-08-10T11:14:28.535Z,26.10
2022-08-10T11:16:39.276Z,26.20
2022-08-10T11:19:26.817Z,26.30
2022-08-10T11:22:24.029Z,26.50
2022-08-10T11:25:03.511Z,26.80
2022-08-10T11:27:34.479Z,26.90
2022-08-10T11:30:10.920Z,27.10
2022-08-10T11:32:45.055Z,27.20
2022-08-10T11:35:35.191Z,27.10
2022-08-10T11:38:28.562Z,27.30
2022-08-10T11:42:09.927Z,27.50
2022-08-10T11:44:35.171Z,27.70
2022-08-10T11:47:10.939Z,27.80
2022-08-10T11:50:08.428Z,27.80
2022-08-10T11:52:48.597Z,27.80
2022-08-10T11:55:23.799Z,27.70
2022-08-10T11:57:55.564Z,27.80
2022-08-10T12:00:33.104Z,27.80
2022-08-10T12:03:11.453Z,27.80
2022-08-10T12:05:52.580Z,27.70
2022-08-10T12:10:06.867Z,27.50
2022-08-10T12:11:27.268Z,27.50
2022-08-10T12:14:24.207Z,27.40
2022-08-10T12:17:03.754Z,27.30
2022-08-10T12:19:59.648Z,27.30
2022-08-10T12:22:49.003Z,27.10
2022-08-10T12:25:56.274Z,27.10
2022-08-10T12:28:50.219Z,27.10
2022-08-10T12:31:26.085Z,27.10
2022-08-10T12:34:03.368Z,27.00
2022-08-10T12:36:40.278Z,27.00
2022-08-10T12:39:23.276Z,26.90
2022-08-10T12:42:06.250Z,26.90
2022-08-10T12:44:41.659Z,26.80
2022-08-10T12:47:19.404Z,26.90
2022-08-10T12:50:23.926Z,26.80
2022-08-10T12:53:04.962Z,26.90
2022-08-10T12:55:45.280Z,26.90
2022-08-10T12:58:59.078Z,27.00
2022-08-10T13:01:17.801Z,26.90
2022-08-10T13:04:22.461Z,27.00
2022-08-10T13:06:46.821Z,27.10
2022-08-10T13:09:27.538Z,27.00
2022-08-10T13:12:34.851Z,27.00
2022-08-10T13:15:49.381Z,26.90
2022-08-10T13:18:26.189Z,26.80
2022-08-10T13:20:58.889Z,26.70
2022-08-10T13:23:36.331Z,26.60
2022-08-10T13:26:07.610Z,26.60
2022-08-10T13:28:49.744Z,26.50
2022-08-10T13:32:03.354Z,26.50
2022-08-10T13:34:42.676Z,26.40
2022-08-10T13:37:22.158Z,26.30
2022-08-10T13:40:01.124Z,26.20
2022-08-10T13:42:40.888Z,26.20
2022-08-10T13:45:20.736Z,26.10
2022-08-10T13:48:09.999Z,26.10
2022-08-10T13:50:44.359Z,26.10
2022-08-10T13:53:16.801Z,26.10
2022-08-10T13:55:56.429Z,26.10
2022-08-10T13:58:36.524Z,26.10
2022-08-10T14:01:13.538Z,26.10
2022-08-10T14:03:46.296Z,26.10
2022-08-10T14:06:21.378Z,26.10
2022-08-10T14:09:07.197Z,26.20
2022-08-10T14:11:42.267Z,26.20
2022-08-10T14:14:19.856Z,26.30
2022-08-10T14:16:48.379Z,26.30
2022-08-10T14:19:21.607Z,26.30
2022-08-10T14:21:50.640Z,26.20
2022-08-10T14:24:22.346Z,26.10
2022-08-10T14:27:10.769Z,26.10
2022-08-10T14:29:45.815Z,26.10
2022-08-10T14:32:24.587Z,26.00
2022-08-10T14:36:16.074Z,25.90
2022-08-10T14:37:56.883Z,25.80
2022-08-10T14:40:34.627Z,25.80
2022-08-10T14:43:05.573Z,25.70
2022-08-10T14:45:40.695Z,25.80
2022-08-10T14:48:11.903Z,25.80
2022-08-10T14:50:55.280Z,25.80
2022-08-10T14:53:31.247Z,25.90
2022-08-10T14:56:15.036Z,26.00
2022-08-10T14:59:06.182Z,26.10
2022-08-10T15:02:01.492Z,26.20
2022-08-10T15:04:42.691Z,26.40
2022-08-10T15:07:14.477Z,26.40
2022-08-10T15:10:00.167Z,26.50
2022-08-10T15:12:55.105Z,26.50
2022-08-10T15:15:28.945Z,26.40
2022-08-10T15:17:58.315Z,26.40
2022-08-10T15:20:33.867Z,26.30
2022-08-10T15:23:30.562Z,26.30
2022-08-10T15:26:11.504Z,26.30
2022-08-10T15:29:22.033Z,26.10
2022-08-10T15:31:57.185Z,26.00
2022-08-10T15:34:48.005Z,26.00
2022-08-10T15:37:47.368Z,25.90
2022-08-10T15:40:24.087Z,25.90
2022-08-10T15:43:00.579Z,25.80
2022-08-10T15:45:31.567Z,25.70
2022-08-10T15:48:03.914Z,25.60
2022-08-10T15:50:39.857Z,25.50
2022-08-10T15:53:08.771Z,25.40
2022-08-10T15:55:51.368Z,25.30
2022-08-10T15:58:30.119Z,25.20
2022-08-10T16:02:12.461Z,25.20
2022-08-10T16:04:09.074Z,25.10
2022-08-10T16:06:43.229Z,25.00
2022-08-10T16:10:22.466Z,24.90
2022-08-10T16:12:33.988Z,24.70
2022-08-10T16:15:17.488Z,24.60
2022-08-10T16:17:57.608Z,24.50
2022-08-10T16:20:32.593Z,24.50
2022-08-10T16:23:06.434Z,24.40
2022-08-10T16:25:48.571Z,24.40
2022-08-10T16:28:24.031Z,24.30
2022-08-10T16:30:53.669Z,24.20
2022-08-10T16:33:27.486Z,24.10
2022-08-10T16:36:21.209Z,24.10
2022-08-10T16:38:51.693Z,24.00
2022-08-10T16:41:23.741Z,23.90
2022-08-10T16:44:11.346Z,23.80
2022-08-10T16:46:42.540Z,23.70
2022-08-10T16:49:14.278Z,23.70
2022-08-10T16:51:46.124Z,23.70
2022-08-10T16:54:17.938Z,23.60
2022-08-10T16:56:48.911Z,23.60
2022-08-10T16:59:24.843Z,23.50
2022-08-10T17:01:55.844Z,23.50
2022-08-10T17:04:29.752Z,23.50
2022-08-10T17:07:02.558Z,23.40
2022-08-10T17:09:34.406Z,23.30
2022-08-10T17:12:12.081Z,23.20
2022-08-10T17:14:52.447Z,23.10
2022-08-10T17:17:52.078Z,23.10
2022-08-10T17:20:31.859Z,23.00
2022-08-10T17:23:09.479Z,22.90
2022-08-10T17:25:48.852Z,22.80
2022-08-10T17:28:34.903Z,22.90
2022-08-10T17:31:53.695Z,22.80
2022-08-10T17:34:27.590Z,22.80
2022-08-10T17:37:03.388Z,22.70
2022-08-10T17:39:40.495Z,22.50
2022-08-10T17:42:10.390Z,22.50
2022-08-10T17:44:41.774Z,22.50
2022-08-10T17:47:15.957Z,22.40
2022-08-10T17:49:47.526Z,22.40
2022-08-10T17:52:21.413Z,22.30
2022-08-10T17:55:06.354Z,22.30
2022-08-10T17:57:38.169Z,22.30
2022-08-10T18:00:17.535Z,22.30
2022-08-10T18:02:50.096Z,22.20
2022-08-10T18:05:19.080Z,22.20
2022-08-10T18:07:50.841Z,22.20
2022-08-10T18:10:24.446Z,22.10
2022-08-10T18:12:56.434Z,22.10
2022-08-10T18:15:29.261Z,22.10
2022-08-10T18:18:03.090Z,22.10
2022-08-10T18:20:37.852Z,22.00
2022-08-10T18:23:12.099Z,22.00
2022-08-10T18:25:43.664Z,22.00
2022-08-10T18:28:24.742Z,21.90
2022-08-10T18:30:54.336Z,21.90
2022-08-10T18:33:32.955Z,21.90
2022-08-10T18:36:08.203Z,21.80
2022-08-10T18:38:41.972Z,21.80
2022-08-10T18:41:12.711Z,21.80
2022-08-10T18:44:05.720Z,21.80
2022-08-10T18:47:02.559Z,21.70
2022-08-10T18:49:43.600Z,21.60
2022-08-10T18:52:15.856Z,21.60
2022-08-10T18:54:51.575Z,21.60
2022-08-10T18:57:31.078Z,21.60
2022-08-10T19:00:09.323Z,21.60
2022-08-10T19:02:50.498Z,21.50
2022-08-10T19:05:39.739Z,21.50
2022-08-10T19:08:07.907Z,21.50
2022-08-10T19:10:39.335Z,21.50
2022-08-10T19:13:22.597Z,21.50
2022-08-10T19:16:02.211Z,21.50
2022-08-10T19:18:51.327Z,21.50
2022-08-10T19:21:39.893Z,21.40
2022-08-10T19:24:13.421Z,21.40
2022-08-10T19:26:55.730Z,21.30
2022-08-10T19:30:08.342Z,21.20
2022-08-10T19:32:51.007Z,21.20
2022-08-10T19:35:28.743Z,21.10
2022-08-10T19:38:16.639Z,21.10
2022-08-10T19:40:46.730Z,21.00
2022-08-10T19:43:30.772Z,20.90
2022-08-10T19:46:10.793Z,20.90
2022-08-10T19:48:52.543Z,20.90
2022-08-10T19:51:28.068Z,20.90
2022-08-10T19:54:09.866Z,20.80
2022-08-10T19:56:50.066Z,20.90
2022-08-10T20:00:15.611Z,21.00
2022-08-10T20:03:00.574Z,20.90
2022-08-10T20:06:19.568Z,20.90
2022-08-10T20:09:06.893Z,20.90
2022-08-10T20:11:53.841Z,20.90
2022-08-10T20:14:28.212Z,20.80
2022-08-10T20:17:03.939Z,20.80
2022-08-10T20:19:53.097Z,20.80
2022-08-10T20:22:29.249Z,20.80
2022-08-10T20:25:14.399Z,20.80
2022-08-10T20:28:00.252Z,20.70
2022-08-10T20:30:32.152Z,20.70
2022-08-10T20:33:11.429Z,20.70
2022-08-10T20:35:50.644Z,20.60
2022-08-10T20:38:47.597Z,20.60
2022-08-10T20:41:46.427Z,20.60
2022-08-10T20:44:33.987Z,20.60
2022-08-10T20:47:37.528Z,20.50
2022-08-10T20:50:25.595Z,20.40
2022-08-10T20:53:09.291Z,20.30
2022-08-10T20:55:53.914Z,20.30
2022-08-10T20:58:31.699Z,20.30
2022-08-10T21:01:09.953Z,20.30
2022-08-10T21:03:58.692Z,20.10
2022-08-10T21:06:43.307Z,20.10
2022-08-10T21:09:21.530Z,20.00
2022-08-10T21:12:11.004Z,19.90
2022-08-10T21:14:57.143Z,19.90
2022-08-10T21:17:25.306Z,19.80
2022-08-10T21:20:18.721Z,19.90
2022-08-10T21:22:58.159Z,19.90
2022-08-10T21:25:52.067Z,19.90
2022-08-10T21:28:29.840Z,19.90
2022-08-10T21:31:06.533Z,19.90
2022-08-10T21:33:49.131Z,19.90
2022-08-10T21:36:25.145Z,19.90
2022-08-10T21:38:57.247Z,19.70
2022-08-10T21:42:06.388Z,19.80
2022-08-10T21:45:09.066Z,19.80
2022-08-10T21:48:06.441Z,19.70
2022-08-10T21:51:01.371Z,19.60
2022-08-10T21:53:57.645Z,19.60
2022-08-10T21:56:44.235Z,19.50
2022-08-10T21:59:38.970Z,19.40
2022-08-10T22:05:39.138Z,19.40
2022-08-10T22:08:29.939Z,19.40
2022-08-10T22:11:20.178Z,19.40
2022-08-10T22:14:12.576Z,19.40
2022-08-10T22:16:59.248Z,19.30
2022-08-10T22:20:07.558Z,19.30
2022-08-10T22:23:19.205Z,19.40
2022-08-10T22:26:17.683Z,19.30
2022-08-10T22:29:09.722Z,19.30
2022-08-10T22:31:25.744Z,19.40
2022-08-10T22:32:13.838Z,19.30
2022-08-10T22:35:14.703Z,19.30
2022-08-10T22:38:14.388Z,19.40
2022-08-10T22:41:04.474Z,19.30
2022-08-10T22:43:53.493Z,19.20
2022-08-10T22:46:45.556Z,19.20
2022-08-10T22:49:13.947Z,19.10
2022-08-10T22:51:47.681Z,18.90
2022-08-10T22:54:49.742Z,18.90
2022-08-10T22:57:36.837Z,18.80
2022-08-10T23:00:31.379Z,18.80
2022-08-10T23:03:12.937Z,18.90
2022-08-10T23:05:54.923Z,18.90
2022-08-10T23:08:43.160Z,18.90
2022-08-10T23:11:20.468Z,18.90
2022-08-10T23:13:51.247Z,18.90
2022-08-10T23:16:41.636Z,18.80
2022-08-10T23:19:32.985Z,18.90
2022-08-10T23:22:10.683Z,18.90
2022-08-10T23:24:41.776Z,18.90
2022-08-10T23:27:36.485Z,18.90
2022-08-10T23:30:17.539Z,18.90
2022-08-10T23:32:51.337Z,18.80
2022-08-10T23:36:29.558Z,18.90
2022-08-10T23:38:29.807Z,18.90
2022-08-10T23:41:04.325Z,18.80
2022-08-10T23:44:02.726Z,18.80
2022-08-10T23:46:38.292Z,18.80
2022-08-10T23:49:09.580Z,18.70
2022-08-10T23:51:55.148Z,18.80
2022-08-10T23:54:32.336Z,18.80
2022-08-10T23:57:04.345Z,18.80
2022-08-10T23:59:37.570Z,18.80
